sensor_id;sensor_type;location;lat;lon;timestamp;P1;durP1;ratioP1;P2;durP2;ratioP2
43070;SDS011;36278;47.952;21.714;2023-01-25T00:01:40;16.40;;;9.90;;
43070;SDS011;36278;47.952;21.714;2023-01-25T00:04:05;14.80;;;10.00;;
43070;SDS011;36278;47.952;21.714;2023-01-25T00:06:31;14.83;;;9.87;;
43070;SDS011;36278;47.952;21.714;2023-01-25T00:08:56;15.43;;;9.90;;
43070;SDS011;36278;47.952;21.714;2023-01-25T00:11:21;14.73;;;9.50;;
43070;SDS011;36278;47.952;21.714;2023-01-25T00:13:47;14.87;;;9.63;;
43070;SDS011;36278;47.952;21.714;2023-01-25T00:16:12;14.10;;;9.00;;
43070;SDS011;36278;47.952;21.714;2023-01-25T00:18:38;13.73;;;8.57;;
43070;SDS011;36278;47.952;21.714;2023-01-25T00:21:13;13.27;;;9.00;;
43070;SDS011;36278;47.952;21.714;2023-01-25T00:23:40;14.27;;;8.60;;
43070;SDS011;36278;47.952;21.714;2023-01-25T00:26:05;14.43;;;9.10;;
43070;SDS011;36278;47.952;21.714;2023-01-25T00:28:31;11.23;;;7.67;;
43070;SDS011;36278;47.952;21.714;2023-01-25T00:31:00;11.23;;;8.00;;
43070;SDS011;36278;47.952;21.714;2023-01-25T00:39:04;11.40;;;7.70;;
43070;SDS011;36278;47.952;21.714;2023-01-25T00:41:31;11.00;;;7.17;;
43070;SDS011;36278;47.952;21.714;2023-01-25T00:43:56;11.93;;;7.10;;
43070;SDS011;36278;47.952;21.714;2023-01-25T00:46:22;10.87;;;7.57;;
43070;SDS011;36278;47.952;21.714;2023-01-25T00:48:48;11.10;;;7.40;;
43070;SDS011;36278;47.952;21.714;2023-01-25T00:51:13;13.23;;;8.40;;
43070;SDS011;36278;47.952;21.714;2023-01-25T00:53:39;11.10;;;7.63;;
43070;SDS011;36278;47.952;21.714;2023-01-25T00:56:05;13.57;;;7.80;;
43070;SDS011;36278;47.952;21.714;2023-01-25T00:58:31;12.63;;;8.43;;
43070;SDS011;36278;47.952;21.714;2023-01-25T01:00:57;10.23;;;7.53;;
43070;SDS011;36278;47.952;21.714;2023-01-25T01:03:22;10.97;;;7.17;;
43070;SDS011;36278;47.952;21.714;2023-01-25T01:05:57;12.80;;;7.63;;
43070;SDS011;36278;47.952;21.714;2023-01-25T01:08:33;10.90;;;7.20;;
43070;SDS011;36278;47.952;21.714;2023-01-25T01:11:01;10.07;;;7.23;;
43070;SDS011;36278;47.952;21.714;2023-01-25T01:13:28;10.47;;;7.20;;
43070;SDS011;36278;47.952;21.714;2023-01-25T01:15:54;12.07;;;7.13;;
43070;SDS011;36278;47.952;21.714;2023-01-25T01:18:20;11.50;;;8.10;;
43070;SDS011;36278;47.952;21.714;2023-01-25T01:20:49;11.40;;;6.87;;
43070;SDS011;36278;47.952;21.714;2023-01-25T01:23:16;9.73;;;6.57;;
43070;SDS011;36278;47.952;21.714;2023-01-25T01:25:42;10.20;;;6.83;;
43070;SDS011;36278;47.952;21.714;2023-01-25T01:28:08;11.27;;;7.53;;
43070;SDS011;36278;47.952;21.714;2023-01-25T01:30:33;12.10;;;7.13;;
43070;SDS011;36278;47.952;21.714;2023-01-25T01:32:59;12.23;;;7.53;;
43070;SDS011;36278;47.952;21.714;2023-01-25T01:35:25;9.50;;;6.47;;
43070;SDS011;36278;47.952;21.714;2023-01-25T01:37:52;9.90;;;6.47;;
43070;SDS011;36278;47.952;21.714;2023-01-25T01:40:17;10.07;;;6.67;;
43070;SDS011;36278;47.952;21.714;2023-01-25T01:42:59;9.90;;;6.83;;
43070;SDS011;36278;47.952;21.714;2023-01-25T01:51:16;9.53;;;6.40;;
43070;SDS011;36278;47.952;21.714;2023-01-25T01:53:43;13.43;;;6.63;;
43070;SDS011;36278;47.952;21.714;2023-01-25T01:56:15;11.43;;;6.57;;
43070;SDS011;36278;47.952;21.714;2023-01-25T01:58:45;10.90;;;6.80;;
43070;SDS011;36278;47.952;21.714;2023-01-25T02:01:14;10.83;;;6.73;;
43070;SDS011;36278;47.952;21.714;2023-01-25T02:03:41;10.87;;;6.63;;
43070;SDS011;36278;47.952;21.714;2023-01-25T02:08:40;10.30;;;6.60;;
43070;SDS011;36278;47.952;21.714;2023-01-25T02:11:07;12.07;;;6.27;;
43070;SDS011;36278;47.952;21.714;2023-01-25T02:13:34;11.37;;;6.67;;
43070;SDS011;36278;47.952;21.714;2023-01-25T02:16:01;7.83;;;5.67;;
43070;SDS011;36278;47.952;21.714;2023-01-25T02:18:27;11.07;;;6.87;;
43070;SDS011;36278;47.952;21.714;2023-01-25T02:20:55;10.07;;;6.00;;
43070;SDS011;36278;47.952;21.714;2023-01-25T02:26:31;9.50;;;6.17;;
43070;SDS011;36278;47.952;21.714;2023-01-25T02:29:07;8.73;;;6.00;;
43070;SDS011;36278;47.952;21.714;2023-01-25T02:31:34;9.60;;;5.93;;
43070;SDS011;36278;47.952;21.714;2023-01-25T02:33:59;10.97;;;6.37;;
43070;SDS011;36278;47.952;21.714;2023-01-25T02:41:24;8.57;;;6.20;;
43070;SDS011;36278;47.952;21.714;2023-01-25T02:43:51;8.97;;;6.53;;
43070;SDS011;36278;47.952;21.714;2023-01-25T02:46:20;9.17;;;5.83;;
43070;SDS011;36278;47.952;21.714;2023-01-25T02:48:51;10.87;;;6.53;;
43070;SDS011;36278;47.952;21.714;2023-01-25T02:51:17;9.70;;;6.70;;
43070;SDS011;36278;47.952;21.714;2023-01-25T02:53:43;9.67;;;6.60;;
43070;SDS011;36278;47.952;21.714;2023-01-25T02:56:08;9.90;;;6.80;;
43070;SDS011;36278;47.952;21.714;2023-01-25T02:58:34;10.20;;;6.83;;
43070;SDS011;36278;47.952;21.714;2023-01-25T03:01:00;11.67;;;7.07;;
43070;SDS011;36278;47.952;21.714;2023-01-25T03:03:25;10.00;;;6.20;;
43070;SDS011;36278;47.952;21.714;2023-01-25T03:05:51;9.57;;;5.90;;
43070;SDS011;36278;47.952;21.714;2023-01-25T03:08:16;9.47;;;6.10;;
43070;SDS011;36278;47.952;21.714;2023-01-25T03:10:42;8.37;;;5.83;;
43070;SDS011;36278;47.952;21.714;2023-01-25T03:13:07;9.17;;;6.53;;
43070;SDS011;36278;47.952;21.714;2023-01-25T03:15:32;9.90;;;5.90;;
43070;SDS011;36278;47.952;21.714;2023-01-25T03:17:58;8.50;;;5.97;;
43070;SDS011;36278;47.952;21.714;2023-01-25T03:20:24;9.10;;;5.70;;
43070;SDS011;36278;47.952;21.714;2023-01-25T03:22:49;8.50;;;5.60;;
43070;SDS011;36278;47.952;21.714;2023-01-25T03:25:15;7.43;;;5.00;;
43070;SDS011;36278;47.952;21.714;2023-01-25T03:27:40;8.90;;;5.77;;
43070;SDS011;36278;47.952;21.714;2023-01-25T03:30:06;8.17;;;5.50;;
43070;SDS011;36278;47.952;21.714;2023-01-25T03:32:33;7.97;;;5.33;;
43070;SDS011;36278;47.952;21.714;2023-01-25T03:34:58;8.97;;;4.73;;
43070;SDS011;36278;47.952;21.714;2023-01-25T03:37:24;8.83;;;5.40;;
43070;SDS011;36278;47.952;21.714;2023-01-25T03:39:55;8.00;;;5.37;;
43070;SDS011;36278;47.952;21.714;2023-01-25T03:42:21;7.63;;;5.33;;
43070;SDS011;36278;47.952;21.714;2023-01-25T03:44:47;7.17;;;5.07;;
43070;SDS011;36278;47.952;21.714;2023-01-25T03:47:12;6.53;;;4.63;;
43070;SDS011;36278;47.952;21.714;2023-01-25T03:49:38;7.20;;;4.70;;
43070;SDS011;36278;47.952;21.714;2023-01-25T03:52:03;6.93;;;4.70;;
43070;SDS011;36278;47.952;21.714;2023-01-25T03:54:29;8.13;;;4.60;;
43070;SDS011;36278;47.952;21.714;2023-01-25T03:56:54;8.47;;;4.97;;
43070;SDS011;36278;47.952;21.714;2023-01-25T03:59:20;9.07;;;5.27;;
43070;SDS011;36278;47.952;21.714;2023-01-25T04:01:45;6.83;;;4.60;;
43070;SDS011;36278;47.952;21.714;2023-01-25T04:04:11;8.90;;;5.17;;
43070;SDS011;36278;47.952;21.714;2023-01-25T04:06:36;6.97;;;4.57;;
43070;SDS011;36278;47.952;21.714;2023-01-25T04:09:02;6.07;;;3.90;;
43070;SDS011;36278;47.952;21.714;2023-01-25T04:11:27;6.10;;;3.93;;
43070;SDS011;36278;47.952;21.714;2023-01-25T04:13:53;6.07;;;4.03;;
43070;SDS011;36278;47.952;21.714;2023-01-25T04:16:18;6.40;;;4.03;;
43070;SDS011;36278;47.952;21.714;2023-01-25T04:18:44;6.17;;;4.00;;
43070;SDS011;36278;47.952;21.714;2023-01-25T04:21:09;6.53;;;4.33;;
43070;SDS011;36278;47.952;21.714;2023-01-25T04:23:35;6.57;;;4.47;;
43070;SDS011;36278;47.952;21.714;2023-01-25T04:26:01;7.67;;;4.50;;
43070;SDS011;36278;47.952;21.714;2023-01-25T04:28:32;7.63;;;4.40;;
43070;SDS011;36278;47.952;21.714;2023-01-25T04:30:58;5.77;;;3.97;;
43070;SDS011;36278;47.952;21.714;2023-01-25T04:33:24;6.40;;;4.47;;
43070;SDS011;36278;47.952;21.714;2023-01-25T04:35:50;6.37;;;4.20;;
43070;SDS011;36278;47.952;21.714;2023-01-25T04:38:15;6.30;;;3.93;;
43070;SDS011;36278;47.952;21.714;2023-01-25T04:40:42;8.23;;;4.07;;
43070;SDS011;36278;47.952;21.714;2023-01-25T04:43:08;10.17;;;4.10;;
43070;SDS011;36278;47.952;21.714;2023-01-25T04:45:35;6.13;;;4.33;;
43070;SDS011;36278;47.952;21.714;2023-01-25T04:48:04;6.23;;;4.17;;
43070;SDS011;36278;47.952;21.714;2023-01-25T04:50:35;7.67;;;4.40;;
43070;SDS011;36278;47.952;21.714;2023-01-25T04:53:04;8.57;;;4.20;;
43070;SDS011;36278;47.952;21.714;2023-01-25T04:55:31;6.57;;;4.37;;
43070;SDS011;36278;47.952;21.714;2023-01-25T04:57:58;5.37;;;3.70;;
43070;SDS011;36278;47.952;21.714;2023-01-25T05:00:23;7.47;;;5.07;;
43070;SDS011;36278;47.952;21.714;2023-01-25T05:02:49;6.33;;;4.27;;
43070;SDS011;36278;47.952;21.714;2023-01-25T05:05:14;6.23;;;4.10;;
43070;SDS011;36278;47.952;21.714;2023-01-25T05:07:40;6.00;;;4.03;;
43070;SDS011;36278;47.952;21.714;2023-01-25T05:10:06;5.77;;;3.83;;
43070;SDS011;36278;47.952;21.714;2023-01-25T05:12:32;6.20;;;4.10;;
43070;SDS011;36278;47.952;21.714;2023-01-25T05:14:57;5.60;;;3.77;;
43070;SDS011;36278;47.952;21.714;2023-01-25T05:17:23;6.53;;;4.20;;
43070;SDS011;36278;47.952;21.714;2023-01-25T05:19:49;5.87;;;3.80;;
43070;SDS011;36278;47.952;21.714;2023-01-25T05:22:15;6.47;;;3.67;;
43070;SDS011;36278;47.952;21.714;2023-01-25T05:24:42;6.80;;;4.13;;
43070;SDS011;36278;47.952;21.714;2023-01-25T05:27:10;5.57;;;3.60;;
43070;SDS011;36278;47.952;21.714;2023-01-25T05:29:38;6.87;;;4.27;;
43070;SDS011;36278;47.952;21.714;2023-01-25T05:32:05;5.70;;;3.60;;
43070;SDS011;36278;47.952;21.714;2023-01-25T05:34:32;6.40;;;3.80;;
43070;SDS011;36278;47.952;21.714;2023-01-25T05:36:59;5.80;;;3.63;;
43070;SDS011;36278;47.952;21.714;2023-01-25T05:39:25;7.53;;;4.33;;
43070;SDS011;36278;47.952;21.714;2023-01-25T05:41:50;6.00;;;3.87;;
43070;SDS011;36278;47.952;21.714;2023-01-25T05:44:16;6.33;;;4.17;;
43070;SDS011;36278;47.952;21.714;2023-01-25T05:46:42;6.27;;;4.07;;
43070;SDS011;36278;47.952;21.714;2023-01-25T05:49:07;7.03;;;3.87;;
43070;SDS011;36278;47.952;21.714;2023-01-25T05:51:33;7.37;;;3.63;;
43070;SDS011;36278;47.952;21.714;2023-01-25T05:54:03;6.73;;;3.47;;
43070;SDS011;36278;47.952;21.714;2023-01-25T05:56:32;6.87;;;3.63;;
43070;SDS011;36278;47.952;21.714;2023-01-25T05:58:58;6.13;;;4.00;;
43070;SDS011;36278;47.952;21.714;2023-01-25T06:01:25;5.30;;;3.80;;
43070;SDS011;36278;47.952;21.714;2023-01-25T06:03:52;8.17;;;3.20;;
43070;SDS011;36278;47.952;21.714;2023-01-25T06:06:19;6.93;;;3.40;;
43070;SDS011;36278;47.952;21.714;2023-01-25T06:08:44;4.77;;;3.10;;
43070;SDS011;36278;47.952;21.714;2023-01-25T06:11:11;7.30;;;4.10;;
43070;SDS011;36278;47.952;21.714;2023-01-25T06:13:42;4.90;;;3.33;;
43070;SDS011;36278;47.952;21.714;2023-01-25T06:16:08;5.27;;;3.50;;
43070;SDS011;36278;47.952;21.714;2023-01-25T06:18:34;5.97;;;3.33;;
43070;SDS011;36278;47.952;21.714;2023-01-25T06:21:00;6.23;;;3.70;;
43070;SDS011;36278;47.952;21.714;2023-01-25T06:23:27;4.87;;;3.17;;
43070;SDS011;36278;47.952;21.714;2023-01-25T06:25:56;8.53;;;3.47;;
43070;SDS011;36278;47.952;21.714;2023-01-25T06:28:33;8.97;;;3.20;;
43070;SDS011;36278;47.952;21.714;2023-01-25T06:31:13;9.27;;;3.80;;
43070;SDS011;36278;47.952;21.714;2023-01-25T06:33:41;6.77;;;4.13;;
43070;SDS011;36278;47.952;21.714;2023-01-25T06:36:11;5.67;;;3.90;;
43070;SDS011;36278;47.952;21.714;2023-01-25T06:38:37;6.37;;;4.10;;
43070;SDS011;36278;47.952;21.714;2023-01-25T06:41:04;6.33;;;4.00;;
43070;SDS011;36278;47.952;21.714;2023-01-25T06:43:33;6.87;;;3.23;;
43070;SDS011;36278;47.952;21.714;2023-01-25T06:45:59;6.30;;;4.07;;
43070;SDS011;36278;47.952;21.714;2023-01-25T06:48:27;7.13;;;4.20;;
43070;SDS011;36278;47.952;21.714;2023-01-25T06:51:02;6.13;;;3.90;;
43070;SDS011;36278;47.952;21.714;2023-01-25T06:53:32;6.33;;;3.63;;
43070;SDS011;36278;47.952;21.714;2023-01-25T06:56:04;8.30;;;3.73;;
43070;SDS011;36278;47.952;21.714;2023-01-25T06:58:31;7.60;;;3.50;;
43070;SDS011;36278;47.952;21.714;2023-01-25T07:01:06;6.07;;;3.67;;
43070;SDS011;36278;47.952;21.714;2023-01-25T07:03:37;4.07;;;2.90;;
43070;SDS011;36278;47.952;21.714;2023-01-25T07:06:04;7.23;;;3.73;;
43070;SDS011;36278;47.952;21.714;2023-01-25T07:08:31;6.60;;;3.40;;
43070;SDS011;36278;47.952;21.714;2023-01-25T07:11:01;4.90;;;3.30;;
43070;SDS011;36278;47.952;21.714;2023-01-25T07:13:30;7.20;;;3.13;;
43070;SDS011;36278;47.952;21.714;2023-01-25T07:15:58;6.73;;;3.17;;
43070;SDS011;36278;47.952;21.714;2023-01-25T07:18:26;8.63;;;2.87;;
43070;SDS011;36278;47.952;21.714;2023-01-25T07:20:53;7.30;;;3.40;;
43070;SDS011;36278;47.952;21.714;2023-01-25T07:23:20;4.63;;;2.87;;
43070;SDS011;36278;47.952;21.714;2023-01-25T07:25:46;7.20;;;3.20;;
43070;SDS011;36278;47.952;21.714;2023-01-25T07:28:13;7.43;;;3.23;;
43070;SDS011;36278;47.952;21.714;2023-01-25T07:30:39;5.70;;;3.60;;
43070;SDS011;36278;47.952;21.714;2023-01-25T07:33:06;6.67;;;3.13;;
43070;SDS011;36278;47.952;21.714;2023-01-25T07:35:31;5.97;;;3.00;;
43070;SDS011;36278;47.952;21.714;2023-01-25T07:37:57;5.47;;;3.23;;
43070;SDS011;36278;47.952;21.714;2023-01-25T07:40:22;4.50;;;2.90;;
43070;SDS011;36278;47.952;21.714;2023-01-25T07:42:52;6.87;;;3.90;;
43070;SDS011;36278;47.952;21.714;2023-01-25T07:45:18;5.67;;;3.47;;
43070;SDS011;36278;47.952;21.714;2023-01-25T07:47:43;5.60;;;3.47;;
43070;SDS011;36278;47.952;21.714;2023-01-25T07:50:10;5.10;;;3.40;;
43070;SDS011;36278;47.952;21.714;2023-01-25T07:52:36;6.03;;;3.63;;
43070;SDS011;36278;47.952;21.714;2023-01-25T07:55:02;6.43;;;3.43;;
43070;SDS011;36278;47.952;21.714;2023-01-25T07:57:27;5.23;;;3.27;;
43070;SDS011;36278;47.952;21.714;2023-01-25T07:59:53;6.60;;;4.00;;
43070;SDS011;36278;47.952;21.714;2023-01-25T08:02:19;6.47;;;3.77;;
43070;SDS011;36278;47.952;21.714;2023-01-25T08:04:45;7.10;;;4.10;;
43070;SDS011;36278;47.952;21.714;2023-01-25T08:07:11;5.30;;;3.50;;
43070;SDS011;36278;47.952;21.714;2023-01-25T08:09:37;5.93;;;3.90;;
43070;SDS011;36278;47.952;21.714;2023-01-25T08:12:03;9.40;;;4.23;;
43070;SDS011;36278;47.952;21.714;2023-01-25T08:14:29;6.37;;;3.67;;
43070;SDS011;36278;47.952;21.714;2023-01-25T08:16:54;5.30;;;3.23;;
43070;SDS011;36278;47.952;21.714;2023-01-25T08:19:20;7.17;;;3.67;;
43070;SDS011;36278;47.952;21.714;2023-01-25T08:21:46;4.70;;;2.93;;
43070;SDS011;36278;47.952;21.714;2023-01-25T08:24:12;4.67;;;3.00;;
43070;SDS011;36278;47.952;21.714;2023-01-25T08:26:37;6.73;;;3.60;;
43070;SDS011;36278;47.952;21.714;2023-01-25T08:29:04;5.17;;;3.50;;
43070;SDS011;36278;47.952;21.714;2023-01-25T08:31:30;8.17;;;3.77;;
43070;SDS011;36278;47.952;21.714;2023-01-25T08:33:58;8.80;;;3.90;;
43070;SDS011;36278;47.952;21.714;2023-01-25T08:36:24;8.07;;;4.33;;
43070;SDS011;36278;47.952;21.714;2023-01-25T08:38:55;6.07;;;3.50;;
43070;SDS011;36278;47.952;21.714;2023-01-25T08:41:23;6.77;;;3.83;;
43070;SDS011;36278;47.952;21.714;2023-01-25T08:43:50;8.47;;;3.87;;
43070;SDS011;36278;47.952;21.714;2023-01-25T08:46:17;6.60;;;4.37;;
43070;SDS011;36278;47.952;21.714;2023-01-25T08:48:44;8.17;;;4.20;;
43070;SDS011;36278;47.952;21.714;2023-01-25T08:51:16;8.10;;;4.70;;
43070;SDS011;36278;47.952;21.714;2023-01-25T08:53:42;23.60;;;15.63;;
43070;SDS011;36278;47.952;21.714;2023-01-25T08:56:12;7.33;;;4.30;;
43070;SDS011;36278;47.952;21.714;2023-01-25T08:58:39;11.70;;;5.20;;
43070;SDS011;36278;47.952;21.714;2023-01-25T09:01:13;9.23;;;4.90;;
43070;SDS011;36278;47.952;21.714;2023-01-25T09:03:40;10.27;;;5.37;;
43070;SDS011;36278;47.952;21.714;2023-01-25T09:06:08;9.40;;;4.70;;
43070;SDS011;36278;47.952;21.714;2023-01-25T09:08:34;6.63;;;4.10;;
43070;SDS011;36278;47.952;21.714;2023-01-25T09:11:03;7.57;;;4.60;;
43070;SDS011;36278;47.952;21.714;2023-01-25T09:13:30;5.53;;;4.10;;
43070;SDS011;36278;47.952;21.714;2023-01-25T09:15:59;6.10;;;3.63;;
43070;SDS011;36278;47.952;21.714;2023-01-25T09:18:29;6.07;;;3.77;;
43070;SDS011;36278;47.952;21.714;2023-01-25T09:20:56;11.67;;;3.83;;
43070;SDS011;36278;47.952;21.714;2023-01-25T09:23:21;7.43;;;3.77;;
43070;SDS011;36278;47.952;21.714;2023-01-25T09:25:58;8.63;;;4.10;;
43070;SDS011;36278;47.952;21.714;2023-01-25T09:28:25;5.97;;;3.77;;
43070;SDS011;36278;47.952;21.714;2023-01-25T09:31:04;5.83;;;3.67;;
43070;SDS011;36278;47.952;21.714;2023-01-25T09:33:31;5.17;;;3.77;;
43070;SDS011;36278;47.952;21.714;2023-01-25T09:35:59;6.00;;;3.80;;
43070;SDS011;36278;47.952;21.714;2023-01-25T09:38:24;11.13;;;4.10;;
43070;SDS011;36278;47.952;21.714;2023-01-25T09:40:55;6.87;;;3.97;;
43070;SDS011;36278;47.952;21.714;2023-01-25T09:47:28;8.93;;;4.90;;
43070;SDS011;36278;47.952;21.714;2023-01-25T09:55:25;9.53;;;4.27;;
43070;SDS011;36278;47.952;21.714;2023-01-25T09:57:54;6.40;;;4.10;;
43070;SDS011;36278;47.952;21.714;2023-01-25T10:00:29;8.23;;;4.23;;
43070;SDS011;36278;47.952;21.714;2023-01-25T10:05:40;7.53;;;4.10;;
43070;SDS011;36278;47.952;21.714;2023-01-25T10:10:50;8.17;;;3.73;;
43070;SDS011;36278;47.952;21.714;2023-01-25T10:13:22;7.03;;;4.18;;
43070;SDS011;36278;47.952;21.714;2023-01-25T10:15:49;6.23;;;3.70;;
43070;SDS011;36278;47.952;21.714;2023-01-25T10:20:56;9.00;;;4.37;;
43070;SDS011;36278;47.952;21.714;2023-01-25T10:26:28;9.30;;;4.20;;
43070;SDS011;36278;47.952;21.714;2023-01-25T10:29:11;8.13;;;4.47;;
43070;SDS011;36278;47.952;21.714;2023-01-25T10:34:29;13.17;;;6.03;;
43070;SDS011;36278;47.952;21.714;2023-01-25T10:37:02;10.30;;;6.20;;
43070;SDS011;36278;47.952;21.714;2023-01-25T10:42:40;7.20;;;4.50;;
43070;SDS011;36278;47.952;21.714;2023-01-25T10:45:11;9.93;;;4.78;;
43070;SDS011;36278;47.952;21.714;2023-01-25T10:47:39;12.37;;;5.60;;
43070;SDS011;36278;47.952;21.714;2023-01-25T10:50:08;7.93;;;5.20;;
43070;SDS011;36278;47.952;21.714;2023-01-25T10:52:34;11.27;;;5.33;;
43070;SDS011;36278;47.952;21.714;2023-01-25T10:55:06;7.93;;;5.03;;
43070;SDS011;36278;47.952;21.714;2023-01-25T10:57:32;8.50;;;5.33;;
43070;SDS011;36278;47.952;21.714;2023-01-25T10:59:59;8.00;;;5.60;;
43070;SDS011;36278;47.952;21.714;2023-01-25T11:10:28;11.83;;;6.10;;
43070;SDS011;36278;47.952;21.714;2023-01-25T11:15:39;7.67;;;5.40;;
43070;SDS011;36278;47.952;21.714;2023-01-25T11:18:29;7.17;;;4.77;;
43070;SDS011;36278;47.952;21.714;2023-01-25T11:21:20;12.70;;;5.37;;
43070;SDS011;36278;47.952;21.714;2023-01-25T11:26:22;11.47;;;5.67;;
43070;SDS011;36278;47.952;21.714;2023-01-25T11:28:47;9.80;;;6.50;;
43070;SDS011;36278;47.952;21.714;2023-01-25T11:31:14;8.17;;;5.33;;
43070;SDS011;36278;47.952;21.714;2023-01-25T11:33:44;9.43;;;5.43;;
43070;SDS011;36278;47.952;21.714;2023-01-25T11:48:57;10.47;;;5.80;;
43070;SDS011;36278;47.952;21.714;2023-01-25T11:51:40;8.27;;;5.70;;
43070;SDS011;36278;47.952;21.714;2023-01-25T11:56:58;13.13;;;6.60;;
43070;SDS011;36278;47.952;21.714;2023-01-25T12:09:57;12.13;;;6.43;;
43070;SDS011;36278;47.952;21.714;2023-01-25T12:28:40;12.87;;;7.10;;
43070;SDS011;36278;47.952;21.714;2023-01-25T12:31:42;12.53;;;8.13;;
43070;SDS011;36278;47.952;21.714;2023-01-25T12:34:03;12.37;;;7.20;;
43070;SDS011;36278;47.952;21.714;2023-01-25T12:36:43;17.07;;;7.93;;
43070;SDS011;36278;47.952;21.714;2023-01-25T12:39:12;10.53;;;7.70;;
43070;SDS011;36278;47.952;21.714;2023-01-25T12:44:18;12.53;;;8.90;;
43070;SDS011;36278;47.952;21.714;2023-01-25T12:49:37;14.60;;;9.13;;
43070;SDS011;36278;47.952;21.714;2023-01-25T12:52:41;14.50;;;9.80;;
43070;SDS011;36278;47.952;21.714;2023-01-25T12:55:17;15.77;;;9.37;;
43070;SDS011;36278;47.952;21.714;2023-01-25T13:00:35;17.13;;;9.70;;
43070;SDS011;36278;47.952;21.714;2023-01-25T13:05:50;18.77;;;10.73;;
43070;SDS011;36278;47.952;21.714;2023-01-25T13:08:34;16.33;;;11.10;;
43070;SDS011;36278;47.952;21.714;2023-01-25T13:16:40;26.93;;;18.93;;
43070;SDS011;36278;47.952;21.714;2023-01-25T13:21:58;23.03;;;15.40;;
43070;SDS011;36278;47.952;21.714;2023-01-25T13:24:28;23.23;;;15.33;;
43070;SDS011;36278;47.952;21.714;2023-01-25T13:31:55;23.70;;;14.77;;
43070;SDS011;36278;47.952;21.714;2023-01-25T13:37:01;22.13;;;14.63;;
43070;SDS011;36278;47.952;21.714;2023-01-25T13:39:41;22.37;;;15.20;;
43070;SDS011;36278;47.952;21.714;2023-01-25T13:44:34;21.30;;;15.00;;
43070;SDS011;36278;47.952;21.714;2023-01-25T13:47:14;25.50;;;15.47;;
43070;SDS011;36278;47.952;21.714;2023-01-25T13:52:24;26.83;;;16.50;;
43070;SDS011;36278;47.952;21.714;2023-01-25T13:54:56;25.60;;;16.47;;
43070;SDS011;36278;47.952;21.714;2023-01-25T13:57:24;32.37;;;17.13;;
43070;SDS011;36278;47.952;21.714;2023-01-25T14:00:03;28.67;;;16.73;;
43070;SDS011;36278;47.952;21.714;2023-01-25T14:02:32;26.83;;;16.33;;
43070;SDS011;36278;47.952;21.714;2023-01-25T14:04:59;32.73;;;19.63;;
43070;SDS011;36278;47.952;21.714;2023-01-25T14:07:30;31.07;;;19.70;;
43070;SDS011;36278;47.952;21.714;2023-01-25T14:10:02;26.90;;;18.17;;
43070;SDS011;36278;47.952;21.714;2023-01-25T14:12:39;36.77;;;21.13;;
43070;SDS011;36278;47.952;21.714;2023-01-25T14:17:44;35.37;;;19.83;;
43070;SDS011;36278;47.952;21.714;2023-01-25T14:20:17;35.03;;;20.47;;
43070;SDS011;36278;47.952;21.714;2023-01-25T14:22:49;33.43;;;20.00;;
43070;SDS011;36278;47.952;21.714;2023-01-25T14:25:19;29.00;;;18.47;;
43070;SDS011;36278;47.952;21.714;2023-01-25T14:27:50;32.67;;;19.13;;
43070;SDS011;36278;47.952;21.714;2023-01-25T14:32:53;32.03;;;19.25;;
43070;SDS011;36278;47.952;21.714;2023-01-25T14:35:34;32.03;;;19.57;;
43070;SDS011;36278;47.952;21.714;2023-01-25T14:38:24;37.53;;;20.60;;
43070;SDS011;36278;47.952;21.714;2023-01-25T14:40:59;34.57;;;20.30;;
43070;SDS011;36278;47.952;21.714;2023-01-25T14:43:26;34.57;;;20.27;;
43070;SDS011;36278;47.952;21.714;2023-01-25T14:45:52;36.87;;;21.07;;
43070;SDS011;36278;47.952;21.714;2023-01-25T14:48:34;36.40;;;20.40;;
43070;SDS011;36278;47.952;21.714;2023-01-25T14:51:03;32.58;;;18.45;;
43070;SDS011;36278;47.952;21.714;2023-01-25T14:53:38;39.10;;;20.50;;
43070;SDS011;36278;47.952;21.714;2023-01-25T14:56:16;35.03;;;19.43;;
43070;SDS011;36278;47.952;21.714;2023-01-25T14:58:54;35.30;;;20.53;;
43070;SDS011;36278;47.952;21.714;2023-01-25T15:01:28;38.63;;;21.47;;
43070;SDS011;36278;47.952;21.714;2023-01-25T15:04:02;36.33;;;19.37;;
43070;SDS011;36278;47.952;21.714;2023-01-25T15:06:28;37.20;;;20.87;;
43070;SDS011;36278;47.952;21.714;2023-01-25T15:08:54;49.97;;;24.43;;
43070;SDS011;36278;47.952;21.714;2023-01-25T15:11:41;45.60;;;23.00;;
43070;SDS011;36278;47.952;21.714;2023-01-25T15:14:15;45.67;;;25.13;;
43070;SDS011;36278;47.952;21.714;2023-01-25T15:16:45;46.15;;;24.77;;
43070;SDS011;36278;47.952;21.714;2023-01-25T15:19:27;43.50;;;23.23;;
43070;SDS011;36278;47.952;21.714;2023-01-25T15:21:55;40.33;;;22.95;;
43070;SDS011;36278;47.952;21.714;2023-01-25T15:24:22;38.13;;;21.83;;
43070;SDS011;36278;47.952;21.714;2023-01-25T15:26:49;38.97;;;22.47;;
43070;SDS011;36278;47.952;21.714;2023-01-25T15:29:21;42.93;;;22.30;;
43070;SDS011;36278;47.952;21.714;2023-01-25T15:31:49;41.33;;;22.43;;
43070;SDS011;36278;47.952;21.714;2023-01-25T15:34:19;42.03;;;22.70;;
43070;SDS011;36278;47.952;21.714;2023-01-25T15:36:49;50.07;;;24.20;;
43070;SDS011;36278;47.952;21.714;2023-01-25T15:39:16;46.80;;;25.73;;
43070;SDS011;36278;47.952;21.714;2023-01-25T15:41:43;47.73;;;24.97;;
43070;SDS011;36278;47.952;21.714;2023-01-25T15:44:10;47.50;;;24.03;;
43070;SDS011;36278;47.952;21.714;2023-01-25T15:46:37;51.97;;;25.47;;
43070;SDS011;36278;47.952;21.714;2023-01-25T15:49:07;47.27;;;25.17;;
43070;SDS011;36278;47.952;21.714;2023-01-25T15:54:06;49.00;;;25.57;;
43070;SDS011;36278;47.952;21.714;2023-01-25T15:56:33;52.77;;;25.57;;
43070;SDS011;36278;47.952;21.714;2023-01-25T15:59:04;50.93;;;25.63;;
43070;SDS011;36278;47.952;21.714;2023-01-25T16:01:31;52.57;;;27.00;;
43070;SDS011;36278;47.952;21.714;2023-01-25T16:03:58;49.70;;;27.53;;
43070;SDS011;36278;47.952;21.714;2023-01-25T16:06:31;45.23;;;25.47;;
43070;SDS011;36278;47.952;21.714;2023-01-25T16:08:58;54.38;;;25.92;;
43070;SDS011;36278;47.952;21.714;2023-01-25T16:11:24;45.73;;;24.00;;
43070;SDS011;36278;47.952;21.714;2023-01-25T16:13:51;48.40;;;24.80;;
43070;SDS011;36278;47.952;21.714;2023-01-25T16:16:20;45.50;;;24.33;;
43070;SDS011;36278;47.952;21.714;2023-01-25T16:18:47;48.13;;;25.13;;
43070;SDS011;36278;47.952;21.714;2023-01-25T16:21:13;54.97;;;26.50;;
43070;SDS011;36278;47.952;21.714;2023-01-25T16:23:39;50.83;;;25.17;;
43070;SDS011;36278;47.952;21.714;2023-01-25T16:26:16;48.10;;;24.77;;
43070;SDS011;36278;47.952;21.714;2023-01-25T16:28:45;47.20;;;25.63;;
43070;SDS011;36278;47.952;21.714;2023-01-25T16:31:11;50.40;;;23.40;;
43070;SDS011;36278;47.952;21.714;2023-01-25T16:33:38;40.70;;;22.87;;
43070;SDS011;36278;47.952;21.714;2023-01-25T16:36:15;39.53;;;22.60;;
43070;SDS011;36278;47.952;21.714;2023-01-25T16:38:45;44.30;;;22.43;;
43070;SDS011;36278;47.952;21.714;2023-01-25T16:41:10;45.13;;;22.60;;
43070;SDS011;36278;47.952;21.714;2023-01-25T16:43:43;43.03;;;21.53;;
43070;SDS011;36278;47.952;21.714;2023-01-25T16:48:45;43.03;;;22.05;;
43070;SDS011;36278;47.952;21.714;2023-01-25T16:53:48;44.80;;;22.90;;
43070;SDS011;36278;47.952;21.714;2023-01-25T16:56:24;44.73;;;21.33;;
43070;SDS011;36278;47.952;21.714;2023-01-25T16:58:52;40.07;;;22.53;;
43070;SDS011;36278;47.952;21.714;2023-01-25T17:01:19;42.93;;;22.90;;
43070;SDS011;36278;47.952;21.714;2023-01-25T17:03:45;46.97;;;24.00;;